createdAt,value
2019-01-24T00:01:50.237Z,78.74
2019-01-24T00:04:20.522Z,78.67
2019-01-24T00:06:51.492Z,78.39
2019-01-24T00:09:21.802Z,78.86
2019-01-24T00:11:52.125Z,79.93
2019-01-24T00:14:22.480Z,81.08
2019-01-24T00:16:53.239Z,81.13
2019-01-24T00:19:23.538Z,78.93
2019-01-24T00:21:54.225Z,79.70
2019-01-24T00:24:25.215Z,80.51
2019-01-24T00:26:55.555Z,80.84
2019-01-24T00:29:26.084Z,80.59
2019-01-24T00:31:56.644Z,79.94
2019-01-24T00:34:26.923Z,79.94
2019-01-24T00:36:57.710Z,79.89
2019-01-24T00:39:27.982Z,79.98
2019-01-24T00:41:58.623Z,80.01
2019-01-24T00:44:29.000Z,80.83
2019-01-24T00:46:59.322Z,81.61
2019-01-24T00:49:29.806Z,81.40
2019-01-24T00:52:00.745Z,80.49
2019-01-24T00:54:31.027Z,80.54
2019-01-24T00:57:01.356Z,80.81
2019-01-24T00:59:32.021Z,80.41
2019-01-24T01:02:02.359Z,80.84
2019-01-24T01:04:32.736Z,80.61
2019-01-24T01:07:04.613Z,79.89
2019-01-24T01:09:34.939Z,79.47
2019-01-24T01:12:05.717Z,79.79
2019-01-24T01:14:35.972Z,79.69
2019-01-24T01:17:06.377Z,78.78
2019-01-24T01:19:36.885Z,78.75
2019-01-24T01:22:07.815Z,78.30
2019-01-24T01:24:38.093Z,78.30
2019-01-24T01:27:09.063Z,77.65
2019-01-24T01:29:39.594Z,77.35
2019-01-24T01:32:10.019Z,77.71
2019-01-24T01:34:40.670Z,77.63
2019-01-24T01:37:11.852Z,77.50
2019-01-24T01:39:43.263Z,77.08
2019-01-24T01:42:13.567Z,76.99
2019-01-24T01:44:43.833Z,76.57
2019-01-24T01:47:14.645Z,76.71
2019-01-24T01:49:45.131Z,76.23
2019-01-24T01:52:15.432Z,75.62
2019-01-24T01:54:46.038Z,75.96
2019-01-24T01:57:16.706Z,76.39
2019-01-24T01:59:47.057Z,76.75
2019-01-24T02:02:17.872Z,78.62
2019-01-24T02:04:48.256Z,80.57
2019-01-24T02:07:19.877Z,82.29
2019-01-24T02:09:50.398Z,82.58
2019-01-24T02:12:20.803Z,83.20
2019-01-24T02:14:52.509Z,82.98
2019-01-24T02:17:23.282Z,82.44
2019-01-24T02:19:53.552Z,82.90
2019-01-24T02:22:24.321Z,81.80
2019-01-24T02:24:54.957Z,81.03
2019-01-24T02:27:25.282Z,80.68
2019-01-24T02:29:55.716Z,80.15
2019-01-24T02:32:26.433Z,80.19
2019-01-24T02:34:56.708Z,80.32
2019-01-24T02:37:27.370Z,80.38
2019-01-24T02:39:58.120Z,80.04
2019-01-24T02:42:28.437Z,79.56
2019-01-24T02:44:59.102Z,79.26
2019-01-24T02:47:30.637Z,79.17
2019-01-24T02:50:01.084Z,78.83
2019-01-24T02:52:31.841Z,78.91
2019-01-24T02:55:02.120Z,78.69
2019-01-24T02:57:32.429Z,78.65
2019-01-24T03:00:03.099Z,78.34
2019-01-24T03:02:34.581Z,78.12
2019-01-24T03:05:06.364Z,77.63
2019-01-24T03:07:37.013Z,77.35
2019-01-24T03:10:08.875Z,77.10
2019-01-24T03:12:39.203Z,76.93
2019-01-24T03:15:11.399Z,77.31
2019-01-24T03:17:41.929Z,76.90
2019-01-24T03:20:12.858Z,76.45
2019-01-24T03:22:43.171Z,76.11
2019-01-24T03:25:13.979Z,75.90
2019-01-24T03:27:44.696Z,75.67
2019-01-24T03:30:24.648Z,75.35
2019-01-24T03:32:54.988Z,74.75
2019-01-24T03:35:27.161Z,74.63
2019-01-24T03:37:57.735Z,75.49
2019-01-24T03:40:28.007Z,75.07
2019-01-24T03:42:58.882Z,74.26
2019-01-24T03:45:29.514Z,74.87
2019-01-24T03:47:59.863Z,74.26
2019-01-24T03:50:30.321Z,73.98
2019-01-24T03:53:00.633Z,74.10
2019-01-24T03:55:31.133Z,73.81
2019-01-24T03:58:01.887Z,73.55
2019-01-24T04:00:33.136Z,73.47
2019-01-24T04:03:03.880Z,72.98
2019-01-24T04:05:34.479Z,72.58
2019-01-24T04:08:04.809Z,72.53
2019-01-24T04:10:36.598Z,73.13
2019-01-24T04:13:07.021Z,72.75
2019-01-24T04:15:37.325Z,72.89
2019-01-24T04:18:07.711Z,72.56
2019-01-24T04:20:38.524Z,72.76
2019-01-24T04:23:08.805Z,73.29
2019-01-24T04:25:39.065Z,72.98
2019-01-24T04:28:09.802Z,73.35
2019-01-24T04:30:40.160Z,72.84
2019-01-24T04:33:10.466Z,73.07
2019-01-24T04:35:41.289Z,72.66
2019-01-24T04:38:11.778Z,72.76
2019-01-24T04:40:42.083Z,72.33
2019-01-24T04:43:12.443Z,72.85
2019-01-24T04:45:42.871Z,72.56
2019-01-24T04:48:13.142Z,72.28
2019-01-24T04:50:43.644Z,72.17
2019-01-24T04:53:14.104Z,72.43
2019-01-24T04:55:44.764Z,72.65
2019-01-24T04:58:15.562Z,72.47
2019-01-24T05:00:45.840Z,72.55
2019-01-24T05:03:16.513Z,72.91
2019-01-24T05:05:47.131Z,72.49
2019-01-24T05:08:17.434Z,72.80
2019-01-24T05:10:47.989Z,72.77
2019-01-24T05:13:18.588Z,72.95
2019-01-24T05:15:48.926Z,73.75
2019-01-24T05:18:19.268Z,73.88
2019-01-24T05:20:49.885Z,74.12
2019-01-24T05:23:20.222Z,75.07
2019-01-24T05:25:50.830Z,75.12
2019-01-24T05:28:21.143Z,75.56
2019-01-24T05:30:51.689Z,76.60
2019-01-24T05:33:22.241Z,76.99
2019-01-24T05:35:52.529Z,76.26
2019-01-24T05:38:22.934Z,76.02
2019-01-24T05:40:53.617Z,76.81
2019-01-24T05:43:24.011Z,76.86
2019-01-24T05:45:54.313Z,76.93
2019-01-24T05:48:24.721Z,76.79
2019-01-24T05:50:55.182Z,77.32
2019-01-24T05:53:25.609Z,77.08
2019-01-24T05:55:56.366Z,77.40
2019-01-24T05:58:26.753Z,77.12
2019-01-24T06:00:57.432Z,77.14
2019-01-24T06:03:27.762Z,77.04
2019-01-24T06:05:58.057Z,76.89
2019-01-24T06:08:28.869Z,76.54
2019-01-24T06:10:59.425Z,76.38
2019-01-24T06:13:30.656Z,76.86
2019-01-24T06:16:01.080Z,77.13
2019-01-24T06:18:33.064Z,76.91
2019-01-24T06:21:03.420Z,76.30
2019-01-24T06:23:34.035Z,75.09
2019-01-24T06:26:04.858Z,75.34
2019-01-24T06:28:35.368Z,75.96
2019-01-24T06:31:05.800Z,76.65
2019-01-24T06:33:36.090Z,76.13
2019-01-24T06:36:07.011Z,76.92
2019-01-24T06:38:38.402Z,74.98
2019-01-24T06:41:08.720Z,73.24
2019-01-24T06:43:39.105Z,73.22
2019-01-24T06:46:09.502Z,73.03
2019-01-24T06:48:39.768Z,73.00
2019-01-24T06:51:10.445Z,74.70
2019-01-24T06:53:41.016Z,74.51
2019-01-24T06:56:11.377Z,73.81
2019-01-24T06:58:41.812Z,74.44
2019-01-24T07:01:12.099Z,73.96
2019-01-24T07:03:42.753Z,73.85
2019-01-24T07:06:13.427Z,73.48
2019-01-24T07:08:43.717Z,74.35
2019-01-24T07:11:14.561Z,73.87
2019-01-24T07:13:45.039Z,74.52
2019-01-24T07:16:15.527Z,75.00
2019-01-24T07:18:45.852Z,75.48
2019-01-24T07:21:16.667Z,75.44
2019-01-24T07:23:46.951Z,75.04
2019-01-24T07:26:17.298Z,73.79
2019-01-24T07:28:47.916Z,73.60
2019-01-24T07:31:18.575Z,73.16
2019-01-24T07:33:49.304Z,71.79
2019-01-24T07:36:19.631Z,71.64
2019-01-24T07:38:50.041Z,71.25
2019-01-24T07:41:20.723Z,70.28
2019-01-24T07:43:50.983Z,70.05
2019-01-24T07:46:21.306Z,71.22
2019-01-24T07:48:52.389Z,71.12
2019-01-24T07:51:22.904Z,71.08
2019-01-24T07:53:53.186Z,70.11
2019-01-24T07:56:24.099Z,70.30
2019-01-24T07:58:54.541Z,70.26
2019-01-24T08:01:24.857Z,70.10
2019-01-24T08:03:55.566Z,70.63
2019-01-24T08:06:25.923Z,69.93
2019-01-24T08:08:56.624Z,69.29
2019-01-24T08:11:26.947Z,68.94
2019-01-24T08:13:57.229Z,68.58
2019-01-24T08:16:27.626Z,68.63
2019-01-24T08:18:58.072Z,68.28
2019-01-24T08:21:28.361Z,67.85
2019-01-24T08:23:59.019Z,67.85
2019-01-24T08:26:29.631Z,67.71
2019-01-24T08:29:00.047Z,67.69
2019-01-24T08:31:30.809Z,66.43
2019-01-24T08:34:01.547Z,67.00
2019-01-24T08:36:31.840Z,66.90
2019-01-24T08:39:02.458Z,66.85
2019-01-24T08:41:33.129Z,68.01
2019-01-24T08:44:03.557Z,67.62
2019-01-24T08:46:33.888Z,66.84
2019-01-24T08:49:04.996Z,68.46
2019-01-24T08:51:35.320Z,68.87
2019-01-24T08:54:05.926Z,69.28
2019-01-24T08:56:36.636Z,70.13
2019-01-24T08:59:07.232Z,70.98
2019-01-24T09:01:37.525Z,71.57
2019-01-24T09:04:08.267Z,70.07
2019-01-24T09:06:39.014Z,70.52
2019-01-24T09:09:10.267Z,69.66
2019-01-24T09:11:40.864Z,70.72
2019-01-24T09:14:11.145Z,71.30
2019-01-24T09:16:41.780Z,70.29
2019-01-24T09:19:12.171Z,69.48
2019-01-24T09:21:42.452Z,69.39
2019-01-24T09:24:13.283Z,68.81
2019-01-24T09:26:43.951Z,67.60
2019-01-24T09:29:15.297Z,67.98
2019-01-24T09:31:45.784Z,68.31
2019-01-24T09:34:16.524Z,68.82
2019-01-24T09:36:46.820Z,69.17
2019-01-24T09:39:17.388Z,67.96
2019-01-24T09:41:47.684Z,69.21
2019-01-24T09:44:18.489Z,69.74
2019-01-24T09:46:49.216Z,69.40
2019-01-24T09:49:19.591Z,70.30
2019-01-24T09:51:50.210Z,70.37
2019-01-24T09:54:20.619Z,69.52
2019-01-24T09:56:50.913Z,68.32
2019-01-24T09:59:21.458Z,67.64
2019-01-24T10:01:52.016Z,66.45
2019-01-24T10:04:22.399Z,66.38
2019-01-24T10:06:52.695Z,66.71
2019-01-24T10:09:23.437Z,66.69
2019-01-24T10:11:53.718Z,67.33
2019-01-24T10:14:24.650Z,67.85
2019-01-24T10:16:54.947Z,67.44
2019-01-24T10:19:25.512Z,67.36
2019-01-24T10:21:56.242Z,69.41
2019-01-24T10:24:26.725Z,67.93
2019-01-24T10:26:57.016Z,68.00
2019-01-24T10:29:27.433Z,67.87
2019-01-24T10:31:57.724Z,68.80
2019-01-24T10:34:28.065Z,68.97
2019-01-24T10:36:58.704Z,68.51
2019-01-24T10:39:29.226Z,68.69
2019-01-24T10:41:59.529Z,69.05
2019-01-24T10:44:30.289Z,69.44
2019-01-24T10:47:00.845Z,68.80
2019-01-24T10:49:31.418Z,69.21
2019-01-24T10:52:05.414Z,68.94
2019-01-24T10:54:35.746Z,68.98
2019-01-24T10:57:06.312Z,66.41
2019-01-24T10:59:37.021Z,66.79
2019-01-24T11:02:07.710Z,66.71
2019-01-24T11:04:38.141Z,67.31
2019-01-24T11:07:08.694Z,64.86
2019-01-24T11:09:39.283Z,64.04
2019-01-24T11:12:09.615Z,63.86
2019-01-24T11:14:40.298Z,63.13
2019-01-24T11:17:10.761Z,63.02
2019-01-24T11:19:41.482Z,61.28
2019-01-24T11:22:11.773Z,61.19
2019-01-24T11:24:42.213Z,61.18
2019-01-24T11:27:12.819Z,60.20
2019-01-24T11:29:43.149Z,58.76
2019-01-24T11:32:13.442Z,58.16
2019-01-24T11:34:44.293Z,57.23
2019-01-24T11:37:14.871Z,57.41
2019-01-24T11:39:45.241Z,57.15
2019-01-24T11:42:15.891Z,55.66
2019-01-24T11:44:46.567Z,56.42
2019-01-24T11:47:16.839Z,57.07
2019-01-24T11:49:47.779Z,57.02
2019-01-24T11:52:18.064Z,56.36
2019-01-24T11:54:48.899Z,55.31
2019-01-24T11:57:19.458Z,55.46
2019-01-24T11:59:49.787Z,54.50
2019-01-24T12:02:20.445Z,53.68
2019-01-24T12:04:50.872Z,54.17
2019-01-24T12:07:21.178Z,54.49
2019-01-24T12:09:51.756Z,54.55
2019-01-24T12:12:22.358Z,54.66
2019-01-24T12:14:52.702Z,54.43
2019-01-24T12:17:23.103Z,54.60
2019-01-24T12:19:53.742Z,54.37
2019-01-24T12:22:24.154Z,54.07
2019-01-24T12:24:54.901Z,53.50
2019-01-24T12:27:25.197Z,54.46
2019-01-24T12:29:55.990Z,54.97
2019-01-24T12:32:26.610Z,55.21
2019-01-24T12:34:56.937Z,55.84
2019-01-24T12:37:27.299Z,59.16
2019-01-24T12:39:57.892Z,60.99
2019-01-24T12:42:28.289Z,61.44
2019-01-24T12:44:58.846Z,62.24
2019-01-24T12:47:29.559Z,65.13
2019-01-24T12:49:59.893Z,67.67
2019-01-24T12:52:30.166Z,67.59
2019-01-24T12:55:00.900Z,68.92
2019-01-24T12:57:31.431Z,70.88
2019-01-24T13:00:01.782Z,72.82
2019-01-24T13:02:32.445Z,73.26
2019-01-24T13:05:03.363Z,74.55
2019-01-24T13:07:33.646Z,74.88
2019-01-24T13:10:05.220Z,74.50
2019-01-24T13:12:35.581Z,75.99
2019-01-24T13:15:06.973Z,76.05
2019-01-24T13:17:37.307Z,77.62
2019-01-24T13:20:10.286Z,78.80
2019-01-24T13:22:40.560Z,79.91
2019-01-24T13:25:13.766Z,81.45
2019-01-24T13:27:44.229Z,81.45
2019-01-24T13:30:17.528Z,81.93
2019-01-24T13:32:48.217Z,81.88
2019-01-24T13:35:18.823Z,82.47
2019-01-24T13:37:49.274Z,82.84
2019-01-24T13:40:21.806Z,82.87
2019-01-24T13:42:52.147Z,81.95
2019-01-24T13:45:27.805Z,83.64
2019-01-24T13:47:58.283Z,83.20
2019-01-24T13:50:28.587Z,84.58
2019-01-24T13:52:58.888Z,84.72
2019-01-24T13:55:30.619Z,84.40
2019-01-24T13:58:01.211Z,84.30
2019-01-24T14:00:42.130Z,85.48
2019-01-24T14:03:25.461Z,85.82
2019-01-24T14:05:56.380Z,85.90
2019-01-24T14:08:26.972Z,86.23
2019-01-24T14:10:58.258Z,85.55
2019-01-24T14:13:28.651Z,86.23
2019-01-24T14:15:59.563Z,86.64
2019-01-24T14:18:29.948Z,85.16
2019-01-24T14:21:00.289Z,84.98
2019-01-24T14:23:30.886Z,85.49
2019-01-24T14:26:01.534Z,84.91
2019-01-24T14:28:31.838Z,84.60
2019-01-24T14:31:02.645Z,85.65
2019-01-24T14:33:32.932Z,85.68
2019-01-24T14:36:03.776Z,85.11
2019-01-24T14:38:34.315Z,85.43
2019-01-24T14:41:04.662Z,86.64
2019-01-24T14:43:35.446Z,84.47
2019-01-24T14:46:06.456Z,83.72
2019-01-24T14:48:36.724Z,82.96
2019-01-24T14:51:07.125Z,82.44
2019-01-24T14:53:37.484Z,82.39
2019-01-24T14:56:07.984Z,82.42
2019-01-24T14:58:38.447Z,82.54
2019-01-24T15:01:14.959Z,82.05
2019-01-24T15:03:45.808Z,82.06
2019-01-24T15:06:16.465Z,82.74
2019-01-24T15:08:46.827Z,82.44
2019-01-24T15:11:17.703Z,83.80
2019-01-24T15:13:48.363Z,83.63
2019-01-24T15:16:19.139Z,82.92
2019-01-24T15:18:49.493Z,83.54
2019-01-24T15:21:20.382Z,84.32
2019-01-24T15:23:50.789Z,84.84
2019-01-24T15:26:21.164Z,84.85
2019-01-24T15:28:51.732Z,84.91
2019-01-24T15:31:22.163Z,85.05
2019-01-24T15:33:52.461Z,85.81
2019-01-24T15:36:23.291Z,85.76
2019-01-24T15:38:53.841Z,87.13
2019-01-24T15:41:24.529Z,86.91
2019-01-24T15:43:54.806Z,87.12
2019-01-24T15:46:25.417Z,87.72
2019-01-24T15:48:56.075Z,87.52
2019-01-24T15:51:26.521Z,87.45
2019-01-24T15:53:56.800Z,87.24
2019-01-24T15:56:27.215Z,87.09
2019-01-24T15:58:57.747Z,87.13
2019-01-24T16:01:28.319Z,86.47
2019-01-24T16:03:58.942Z,86.85
2019-01-24T16:06:29.500Z,87.30
2019-01-24T16:08:59.986Z,87.10
2019-01-24T16:11:30.595Z,87.24
2019-01-24T16:14:01.436Z,85.54
2019-01-24T16:16:32.430Z,86.48
2019-01-24T16:19:02.866Z,85.32
2019-01-24T16:21:33.324Z,86.45
2019-01-24T16:24:04.108Z,85.77
2019-01-24T16:26:34.518Z,86.00
2019-01-24T16:29:04.898Z,85.22
2019-01-24T16:31:35.670Z,84.19
2019-01-24T16:34:06.511Z,84.04
2019-01-24T16:36:37.794Z,84.37
2019-01-24T16:39:10.035Z,84.86
2019-01-24T16:41:40.453Z,84.44
2019-01-24T16:44:11.108Z,84.16
2019-01-24T16:46:41.766Z,84.72
2019-01-24T16:49:12.056Z,83.81
2019-01-24T16:51:42.691Z,84.05
2019-01-24T16:54:13.361Z,84.14
2019-01-24T16:56:43.726Z,84.47
2019-01-24T16:59:14.227Z,84.08
2019-01-24T17:01:44.960Z,82.98
2019-01-24T17:04:15.293Z,82.69
2019-01-24T17:06:45.592Z,83.43
2019-01-24T17:09:16.422Z,83.17
2019-01-24T17:11:46.725Z,82.67
2019-01-24T17:14:22.254Z,82.98
2019-01-24T17:16:49.423Z,82.83
2019-01-24T17:19:19.945Z,81.57
2019-01-24T17:21:50.221Z,82.53
2019-01-24T17:24:20.988Z,82.44
2019-01-24T17:26:51.361Z,81.84
2019-01-24T17:29:21.657Z,81.15
2019-01-24T17:31:52.594Z,81.57
2019-01-24T17:34:23.141Z,81.46
2019-01-24T17:36:53.582Z,81.69
2019-01-24T17:39:24.215Z,81.29
2019-01-24T17:41:54.882Z,81.15
2019-01-24T17:44:25.165Z,81.36
2019-01-24T17:46:56.002Z,81.36
2019-01-24T17:49:26.289Z,81.69
2019-01-24T17:51:57.247Z,81.17
2019-01-24T17:54:27.877Z,81.65
2019-01-24T17:56:58.200Z,81.28
2019-01-24T17:59:28.749Z,81.54
2019-01-24T18:01:59.407Z,80.84
2019-01-24T18:04:29.691Z,80.46
2019-01-24T18:07:00.290Z,80.58
2019-01-24T18:09:30.956Z,80.81
2019-01-24T18:12:01.289Z,80.77
2019-01-24T18:14:31.833Z,82.53
2019-01-24T18:17:02.856Z,83.60
2019-01-24T18:19:33.292Z,82.56
2019-01-24T18:22:04.057Z,81.85
2019-01-24T18:24:34.456Z,81.60
2019-01-24T18:27:04.924Z,81.04
2019-01-24T18:29:35.617Z,80.52
2019-01-24T18:32:06.298Z,80.19
2019-01-24T18:34:36.591Z,78.67
2019-01-24T18:37:07.293Z,76.45
2019-01-24T18:39:37.787Z,76.66
2019-01-24T18:42:08.165Z,77.23
2019-01-24T18:44:38.938Z,77.00
2019-01-24T18:47:09.996Z,77.21
2019-01-24T18:49:40.678Z,77.15
2019-01-24T18:52:11.164Z,77.01
2019-01-24T18:54:41.468Z,77.47
2019-01-24T18:57:12.350Z,76.85
2019-01-24T18:59:42.753Z,77.31
2019-01-24T19:02:13.090Z,76.91
2019-01-24T19:04:43.835Z,76.57
2019-01-24T19:07:14.509Z,77.42
2019-01-24T19:09:44.799Z,76.65
2019-01-24T19:12:15.367Z,77.09
2019-01-24T19:14:46.928Z,78.08
2019-01-24T19:17:17.489Z,77.36
2019-01-24T19:19:47.843Z,77.17
2019-01-24T19:22:19.248Z,76.72
2019-01-24T19:24:49.624Z,76.99
2019-01-24T19:27:20.047Z,77.19
2019-01-24T19:29:50.309Z,76.92
2019-01-24T19:32:20.863Z,77.05
2019-01-24T19:34:51.647Z,77.45
2019-01-24T19:37:21.961Z,77.15
2019-01-24T19:39:52.308Z,76.87
2019-01-24T19:42:22.848Z,77.11
2019-01-24T19:44:53.207Z,77.17
2019-01-24T19:47:23.927Z,77.18
2019-01-24T19:49:54.677Z,77.21
2019-01-24T19:52:25.021Z,77.63
2019-01-24T19:54:55.676Z,77.56
2019-01-24T19:57:26.282Z,77.56
2019-01-24T19:59:56.815Z,77.43
2019-01-24T20:02:27.642Z,76.78
2019-01-24T20:04:57.958Z,76.95
2019-01-24T20:07:28.512Z,76.21
2019-01-24T20:09:59.277Z,75.83
2019-01-24T20:12:29.620Z,76.29
2019-01-24T20:14:59.954Z,75.79
2019-01-24T20:17:30.954Z,76.86
2019-01-24T20:20:01.468Z,76.30
2019-01-24T20:22:32.774Z,76.20
2019-01-24T20:25:03.559Z,76.88
2019-01-24T20:27:34.022Z,76.60
2019-01-24T20:30:05.208Z,76.23
2019-01-24T20:32:35.518Z,75.57
2019-01-24T20:35:07.164Z,75.77
2019-01-24T20:37:37.570Z,75.63
2019-01-24T20:40:08.774Z,76.01
2019-01-24T20:42:39.188Z,75.69
2019-01-24T20:45:13.269Z,76.11
2019-01-24T20:47:44.225Z,76.33
2019-01-24T20:50:14.870Z,75.96
2019-01-24T20:52:46.777Z,76.19
2019-01-24T20:55:17.285Z,76.26
2019-01-24T20:57:47.775Z,76.76
2019-01-24T21:00:20.417Z,76.92
2019-01-24T21:02:52.196Z,76.87
2019-01-24T21:05:23.309Z,76.28
2019-01-24T21:07:54.316Z,76.41
2019-01-24T21:10:25.785Z,76.47
2019-01-24T21:12:56.481Z,76.04
2019-01-24T21:15:27.276Z,75.62
2019-01-24T21:17:57.681Z,75.29
2019-01-24T21:20:28.960Z,74.48
2019-01-24T21:22:59.830Z,75.80
2019-01-24T21:25:30.501Z,75.21
2019-01-24T21:28:00.871Z,74.38
2019-01-24T21:30:33.423Z,74.61
2019-01-24T21:33:04.446Z,74.81
2019-01-24T21:35:35.723Z,74.94
2019-01-24T21:38:08.134Z,74.57
2019-01-24T21:40:38.691Z,74.51
2019-01-24T21:43:09.074Z,74.53
2019-01-24T21:45:39.778Z,74.35
2019-01-24T21:48:10.218Z,73.71
2019-01-24T21:50:44.850Z,73.99
2019-01-24T21:53:15.762Z,73.71
2019-01-24T21:55:46.147Z,73.57
2019-01-24T21:58:16.639Z,73.56
2019-01-24T22:00:47.150Z,73.01
2019-01-24T22:03:17.489Z,72.69
2019-01-24T22:05:48.159Z,72.70
2019-01-24T22:08:39.077Z,72.96
2019-01-24T22:11:09.378Z,73.66
2019-01-24T22:13:39.983Z,73.72
2019-01-24T22:16:11.109Z,73.66
2019-01-24T22:18:41.391Z,73.95
2019-01-24T22:21:11.907Z,74.45
2019-01-24T22:23:42.389Z,73.64
2019-01-24T22:26:12.862Z,73.86
2019-01-24T22:28:43.146Z,73.42
2019-01-24T22:31:13.935Z,72.05
2019-01-24T22:33:44.221Z,72.85
2019-01-24T22:36:15.237Z,73.01
2019-01-24T22:38:45.532Z,72.32
2019-01-24T22:41:15.948Z,72.42
2019-01-24T22:43:46.644Z,72.42
2019-01-24T22:46:17.256Z,71.95
2019-01-24T22:48:47.532Z,71.68
2019-01-24T22:51:18.078Z,71.99
2019-01-24T22:53:48.363Z,72.27
2019-01-24T22:56:18.665Z,72.03
2019-01-24T22:58:49.145Z,72.13
2019-01-24T23:01:48.667Z,71.66
2019-01-24T23:04:21.764Z,72.33
2019-01-24T23:06:52.683Z,72.65
2019-01-24T23:09:23.072Z,72.23
2019-01-24T23:11:53.880Z,72.95
2019-01-24T23:14:24.197Z,74.24
2019-01-24T23:16:54.778Z,74.97
2019-01-24T23:19:26.532Z,74.24
2019-01-24T23:21:57.059Z,74.21
2019-01-24T23:24:27.357Z,74.45
2019-01-24T23:26:57.760Z,74.79
2019-01-24T23:29:28.543Z,74.59
2019-01-24T23:31:58.867Z,74.86
2019-01-24T23:34:29.598Z,74.33
2019-01-24T23:37:00.169Z,74.40
2019-01-24T23:39:30.447Z,75.03
2019-01-24T23:42:01.255Z,76.06
2019-01-24T23:44:32.039Z,76.43
2019-01-24T23:47:02.473Z,76.29
2019-01-24T23:49:32.838Z,75.80
2019-01-24T23:52:03.670Z,76.76
2019-01-24T23:54:33.931Z,77.15
2019-01-24T23:57:05.629Z,76.19
2019-01-24T23:59:36.133Z,75.78
